Time;durP1;ratioP1;P1;durP2;ratioP2;P2;SDS_P1;SDS_P2;PMS_P1;PMS_P2;Temp;Humidity;BMP_temperature;BMP_pressure;BME280_temperature;BME280_humidity;BME280_pressure;Samples;Min_cycle;Max_cycle;Signal;HPM_P1;HPM_P2
2022/04/29 00:01:03;;;;;;;2.92;1.33;;;9.50;67.10;;;;;;5014387;28;20042;-86
2022/04/29 00:03:31;;;;;;;3.58;1.10;;;9.60;67.20;;;;;;5013559;28;20050;-85
2022/04/29 00:05:59;;;;;;;6.05;1.10;;;9.60;67.30;;;;;;4997843;28;20050;-85
2022/04/29 00:08:28;;;;;;;1.95;1.00;;;9.50;67.30;;;;;;4997542;28;20052;-86
2022/04/29 00:10:56;;;;;;;3.13;1.30;;;9.50;67.40;;;;;;5026501;28;20517;-86
2022/04/29 00:13:24;;;;;;;2.78;1.85;;;9.40;67.60;;;;;;5030850;28;20475;-86
2022/04/29 00:15:52;;;;;;;3.65;1.10;;;9.40;67.60;;;;;;4998118;28;20058;-86
2022/04/29 00:18:22;;;;;;;1.95;0.98;;;9.40;67.70;;;;;;4996249;28;20109;-85
2022/04/29 00:20:51;;;;;;;2.53;1.15;;;9.30;67.80;;;;;;4997762;28;20074;-86
2022/04/29 00:23:18;;;;;;;8.40;2.30;;;9.30;67.90;;;;;;5013919;28;20081;-86
2022/04/29 00:25:45;;;;;;;3.42;1.65;;;9.30;68.00;;;;;;5006726;28;20058;-86
2022/04/29 00:28:13;;;;;;;2.67;1.20;;;9.30;68.30;;;;;;4997700;28;20108;-86
2022/04/29 00:30:40;;;;;;;5.97;1.58;;;9.20;68.20;;;;;;5027369;28;20117;-85
2022/04/29 00:33:10;;;;;;;4.70;1.60;;;9.20;68.50;;;;;;4998008;28;20046;-86
2022/04/29 00:35:39;;;;;;;3.92;1.67;;;9.10;68.60;;;;;;5013991;28;20133;-86
2022/04/29 00:38:10;;;;;;;3.78;1.80;;;9.10;68.60;;;;;;5013937;28;20038;-86
2022/04/29 00:40:39;;;;;;;4.45;2.50;;;9.10;68.80;;;;;;5030574;28;20129;-85
2022/04/29 00:43:07;;;;;;;3.25;1.50;;;9.00;69.00;;;;;;5014074;28;20078;-85
2022/04/29 00:45:34;;;;;;;2.45;1.40;;;9.00;69.00;;;;;;5013854;28;20521;-86
2022/04/29 00:48:04;;;;;;;3.67;1.77;;;9.00;69.10;;;;;;4989134;28;20053;-87
2022/04/29 00:50:31;;;;;;;1.83;1.08;;;9.00;69.10;;;;;;4996976;28;20129;-86
2022/04/29 00:53:02;;;;;;;2.30;1.33;;;8.90;69.10;;;;;;4997076;28;20038;-87
2022/04/29 00:55:33;;;;;;;7.47;1.65;;;9.00;69.20;;;;;;5011520;28;20056;-87
2022/04/29 00:58:06;;;;;;;3.00;1.58;;;8.90;69.20;;;;;;5011453;28;20042;-86
2022/04/29 01:00:35;;;;;;;3.08;1.52;;;8.90;69.50;;;;;;5013532;28;20054;-86
2022/04/29 01:03:04;;;;;;;3.70;1.65;;;8.80;69.50;;;;;;4997063;28;20502;-86
2022/04/29 01:05:33;;;;;;;3.50;1.73;;;8.80;69.60;;;;;;5013643;28;20046;-87
2022/04/29 01:08:01;;;;;;;3.50;1.60;;;8.80;69.60;;;;;;5008537;28;20481;-86
2022/04/29 01:10:28;;;;;;;3.78;2.08;;;8.80;69.70;;;;;;4997509;28;20057;-87
2022/04/29 01:12:58;;;;;;;3.33;1.65;;;8.80;69.90;;;;;;5009423;28;20111;-86
2022/04/29 01:15:25;;;;;;;4.03;1.80;;;8.70;69.90;;;;;;5013342;28;20042;-86
2022/04/29 01:17:58;;;;;;;4.45;1.83;;;8.70;70.00;;;;;;4999553;28;20057;-87
2022/04/29 01:20:31;;;;;;;5.47;1.95;;;8.70;70.10;;;;;;5032602;28;20050;-86
2022/04/29 01:23:03;;;;;;;6.30;2.72;;;8.70;70.20;;;;;;5029455;28;20124;-87
2022/04/29 01:25:31;;;;;;;6.15;2.80;;;8.70;70.30;;;;;;5032847;28;20045;-87
2022/04/29 01:28:01;;;;;;;3.40;1.90;;;8.70;70.40;;;;;;4993770;28;20137;-87
2022/04/29 01:30:28;;;;;;;6.55;3.15;;;8.60;70.50;;;;;;4997199;28;20086;-87
2022/04/29 01:32:56;;;;;;;7.65;2.72;;;8.60;70.60;;;;;;5002740;28;20045;-86
2022/04/29 01:35:24;;;;;;;5.88;2.85;;;8.60;70.80;;;;;;5009173;28;20065;-88
2022/04/29 01:37:52;;;;;;;4.75;2.80;;;8.50;70.90;;;;;;5016608;28;20033;-87
2022/04/29 01:40:20;;;;;;;6.28;2.80;;;8.50;70.90;;;;;;5000035;28;20057;-86
2022/04/29 01:42:51;;;;;;;4.70;3.08;;;8.50;71.00;;;;;;5015785;28;20564;-87
2022/04/29 01:45:21;;;;;;;5.13;2.47;;;8.50;71.00;;;;;;4999589;28;20103;-86
2022/04/29 01:48:11;;;;;;;4.72;2.78;;;8.50;71.10;;;;;;5019249;28;20053;-86
2022/04/29 01:51:06;;;;;;;4.80;2.50;;;8.40;71.80;;;;;;5002971;28;20045;-86
2022/04/29 01:53:34;;;;;;;6.13;2.80;;;8.40;71.40;;;;;;4984326;28;20508;-87
2022/04/29 01:56:02;;;;;;;6.10;2.58;;;8.40;71.50;;;;;;4984385;28;20379;-87
2022/04/29 01:58:29;;;;;;;5.72;2.65;;;8.30;71.40;;;;;;5015811;28;20056;-88
2022/04/29 02:00:57;;;;;;;10.55;3.40;;;8.30;71.50;;;;;;5013786;28;20068;-87
2022/04/29 02:03:24;;;;;;;8.40;3.00;;;8.40;71.80;;;;;;4996638;28;20045;-86
2022/04/29 02:05:52;;;;;;;6.75;3.42;;;8.30;71.80;;;;;;4999588;28;20049;-86
2022/04/29 02:08:19;;;;;;;4.78;3.08;;;8.30;72.00;;;;;;4998866;28;20092;-85
2022/04/29 02:10:47;;;;;;;7.55;2.90;;;8.30;72.00;;;;;;4999118;28;20052;-86
2022/04/29 02:13:22;;;;;;;6.30;3.42;;;8.30;72.00;;;;;;4999511;28;20396;-86
2022/04/29 02:16:08;;;;;;;5.50;2.60;;;8.30;72.20;;;;;;5018126;28;20670;-86
2022/04/29 02:18:36;;;;;;;5.28;2.97;;;8.30;72.20;;;;;;4997773;28;20080;-86
2022/04/29 02:21:03;;;;;;;6.80;2.20;;;8.20;72.20;;;;;;4998172;28;20065;-85
2022/04/29 02:23:30;;;;;;;4.45;2.67;;;8.20;72.30;;;;;;4998068;28;20501;-86
2022/04/29 02:26:00;;;;;;;6.65;3.10;;;8.20;72.40;;;;;;4999252;28;20115;-86
2022/04/29 02:28:28;;;;;;;8.25;3.38;;;8.20;72.40;;;;;;5009814;28;20084;-86
2022/04/29 02:30:58;;;;;;;3.90;2.55;;;8.20;72.50;;;;;;5016659;28;20070;-87
2022/04/29 02:33:29;;;;;;;9.07;3.75;;;8.20;72.60;;;;;;5002808;28;20069;-86
2022/04/29 02:35:57;;;;;;;6.25;3.47;;;8.20;72.90;;;;;;5032404;28;20563;-86
2022/04/29 02:38:24;;;;;;;5.78;2.55;;;8.20;72.80;;;;;;4986457;28;20116;-86
2022/04/29 02:40:55;;;;;;;4.32;2.33;;;8.20;72.90;;;;;;4988219;28;20346;-86
2022/04/29 02:43:23;;;;;;;5.55;2.97;;;8.20;72.80;;;;;;4995735;28;20042;-85
2022/04/29 02:45:55;;;;;;;4.60;2.47;;;8.20;72.90;;;;;;5015313;28;20042;-86
2022/04/29 02:48:25;;;;;;;3.50;2.15;;;8.20;72.80;;;;;;4999471;28;20045;-86
2022/04/29 02:50:52;;;;;;;5.75;2.83;;;8.30;72.90;;;;;;5015370;28;20115;-86
2022/04/29 02:53:19;;;;;;;4.63;2.47;;;8.30;72.90;;;;;;4998133;28;20049;-86
2022/04/29 02:55:50;;;;;;;5.57;2.75;;;8.30;72.90;;;;;;4992768;28;20061;-86
2022/04/29 02:58:29;;;;;;;7.22;2.70;;;8.30;72.90;;;;;;5001165;28;20136;-86
2022/04/29 03:00:57;;;;;;;4.47;2.63;;;8.20;72.90;;;;;;5000379;28;20045;-85
2022/04/29 03:03:24;;;;;;;5.07;2.45;;;8.30;73.10;;;;;;5000692;28;20047;-86
2022/04/29 03:05:52;;;;;;;5.95;2.72;;;8.30;73.00;;;;;;5013110;28;20042;-86
2022/04/29 03:08:19;;;;;;;4.97;2.53;;;8.30;73.10;;;;;;5026832;28;20046;-86
2022/04/29 03:10:49;;;;;;;4.22;2.25;;;8.20;73.00;;;;;;5004868;28;20048;-85
2022/04/29 03:13:19;;;;;;;7.32;2.50;;;8.20;73.00;;;;;;5000331;28;20050;-86
2022/04/29 03:15:53;;;;;;;6.13;2.83;;;8.20;73.20;;;;;;5000558;28;20038;-86
2022/04/29 03:18:23;;;;;;;4.30;2.60;;;8.20;73.30;;;;;;4998774;28;20084;-85
2022/04/29 03:20:53;;;;;;;5.07;2.75;;;8.20;73.40;;;;;;4983340;28;20150;-86
2022/04/29 03:23:22;;;;;;;4.65;2.42;;;8.10;73.40;;;;;;5015665;28;20481;-85
2022/04/29 03:25:58;;;;;;;4.22;2.80;;;8.10;73.50;;;;;;4997302;28;20049;-85
2022/04/29 03:28:28;;;;;;;4.78;3.38;;;8.10;73.70;;;;;;4999260;28;20137;-85
2022/04/29 03:30:58;;;;;;;5.30;2.85;;;8.00;73.80;;;;;;4998917;28;20069;-85
2022/04/29 03:33:32;;;;;;;5.00;2.35;;;8.00;73.90;;;;;;5000474;28;20413;-86
2022/04/29 03:36:02;;;;;;;7.35;2.90;;;8.00;73.80;;;;;;5018497;28;20052;-85
2022/04/29 03:38:47;;;;;;;5.55;2.45;;;8.00;73.90;;;;;;5001043;28;20053;-86
2022/04/29 03:41:14;;;;;;;4.65;2.53;;;8.00;73.90;;;;;;4996499;28;20080;-85
2022/04/29 03:43:44;;;;;;;4.57;2.17;;;8.00;73.90;;;;;;5001331;28;20063;-85
2022/04/29 03:46:20;;;;;;;5.30;2.42;;;8.00;73.90;;;;;;5015531;28;20046;-85
2022/04/29 03:52:00;;;;;;;4.68;2.03;;;8.00;74.00;;;;;;5018706;28;20045;-86
2022/04/29 03:54:30;;;;;;;5.13;2.28;;;7.90;74.70;;;;;;4986398;28;20052;-85
2022/04/29 03:56:59;;;;;;;4.05;2.35;;;7.90;74.20;;;;;;5002604;28;20531;-86
2022/04/29 03:59:29;;;;;;;10.13;3.47;;;7.90;74.20;;;;;;5017934;28;20207;-85
2022/04/29 04:01:57;;;;;;;6.85;2.88;;;7.90;74.40;;;;;;5035043;28;20143;-85
2022/04/29 04:04:25;;;;;;;6.65;2.97;;;7.90;74.40;;;;;;4993445;28;20419;-85
2022/04/29 04:07:01;;;;;;;3.47;1.95;;;7.90;74.50;;;;;;4979354;28;20567;-86
2022/04/29 04:09:51;;;;;;;5.60;2.75;;;7.90;74.50;;;;;;5006666;28;20386;-87
2022/04/29 04:12:18;;;;;;;6.13;2.17;;;7.90;74.60;;;;;;5017693;28;20056;-86
2022/04/29 04:15:05;;;;;;;4.75;2.58;;;7.90;74.60;;;;;;5020356;28;20048;-86
2022/04/29 04:17:42;;;;;;;5.15;2.47;;;7.90;74.60;;;;;;4998003;28;20049;-87
2022/04/29 04:20:11;;;;;;;5.18;2.90;;;7.90;74.60;;;;;;5001880;28;20046;-86
2022/04/29 04:22:51;;;;;;;4.88;2.75;;;7.90;74.60;;;;;;5003396;28;20060;-85
2022/04/29 04:25:21;;;;;;;5.25;2.33;;;7.90;74.60;;;;;;4993414;28;20132;-85
2022/04/29 04:27:49;;;;;;;6.00;2.80;;;7.90;74.70;;;;;;5013288;28;20128;-86
2022/04/29 04:30:17;;;;;;;5.50;2.72;;;7.90;74.70;;;;;;5028879;28;20053;-86
2022/04/29 04:32:44;;;;;;;6.38;2.40;;;8.00;74.80;;;;;;5001479;28;20054;-86
2022/04/29 04:35:12;;;;;;;4.72;2.15;;;7.90;74.80;;;;;;5001003;28;20137;-86
2022/04/29 04:37:41;;;;;;;6.75;2.63;;;8.00;74.90;;;;;;5017305;28;20132;-87
2022/04/29 04:40:12;;;;;;;5.40;2.55;;;8.00;75.00;;;;;;4986142;28;20044;-87
2022/04/29 04:42:47;;;;;;;8.07;2.40;;;8.00;75.00;;;;;;5017202;28;20077;-87
2022/04/29 04:45:31;;;;;;;6.70;2.60;;;8.00;75.00;;;;;;5016854;28;20053;-87
2022/04/29 04:48:20;;;;;;;5.22;2.47;;;8.00;75.10;;;;;;4997424;28;20107;-87
2022/04/29 04:51:07;;;;;;;5.15;2.70;;;8.00;75.10;;;;;;5018863;28;20042;-87
2022/04/29 04:53:45;;;;;;;4.93;2.40;;;8.00;75.20;;;;;;5001348;28;20053;-87
2022/04/29 04:56:13;;;;;;;5.85;2.40;;;8.00;75.20;;;;;;5001034;28;20037;-87
2022/04/29 04:58:40;;;;;;;5.07;2.30;;;8.00;75.30;;;;;;5000969;28;20041;-89
2022/04/29 05:01:07;;;;;;;4.45;2.10;;;8.00;75.20;;;;;;5001209;28;20045;-88
2022/04/29 05:03:35;;;;;;;4.68;2.38;;;8.00;75.20;;;;;;5023288;28;20068;-88
2022/04/29 05:06:22;;;;;;;6.43;2.38;;;8.00;75.30;;;;;;5016347;28;20053;-89
2022/04/29 05:08:53;;;;;;;6.03;2.80;;;8.00;75.30;;;;;;5016718;28;20490;-89
2022/04/29 05:11:20;;;;;;;4.05;1.58;;;8.00;75.20;;;;;;5000980;28;20056;-89
2022/04/29 05:14:18;;;;;;;3.47;1.85;;;8.00;75.20;;;;;;5029745;28;20095;-89
2022/04/29 05:16:49;;;;;;;2.63;1.65;;;8.00;75.20;;;;;;4988761;28;20042;-86
2022/04/29 05:19:35;;;;;;;5.25;2.25;;;8.10;75.30;;;;;;5019081;28;20139;-85
2022/04/29 05:22:03;;;;;;;3.80;1.98;;;8.10;75.30;;;;;;5016300;28;20064;-86
2022/04/29 05:24:34;;;;;;;5.78;2.40;;;8.10;75.30;;;;;;5000712;28;20049;-86
2022/04/29 05:27:20;;;;;;;5.38;2.20;;;8.10;75.30;;;;;;5013995;28;20059;-86
2022/04/29 05:30:08;;;;;;;7.82;2.33;;;8.10;75.30;;;;;;5009947;28;20060;-86
2022/04/29 05:33:01;;;;;;;4.40;2.38;;;8.10;75.50;;;;;;5006203;28;20045;-87
2022/04/29 05:35:49;;;;;;;9.98;2.20;;;8.10;75.40;;;;;;5019425;28;20052;-85
2022/04/29 05:44:13;;;;;;;7.28;2.90;;;8.10;75.50;;;;;;5016135;28;20045;-87
2022/04/29 05:46:40;;;;;;;5.72;2.72;;;8.10;75.50;;;;;;5016088;28;20045;-87
2022/04/29 05:49:07;;;;;;;5.05;2.47;;;8.10;75.50;;;;;;4999508;28;20045;-86
2022/04/29 05:51:40;;;;;;;4.88;2.38;;;8.10;75.50;;;;;;4992580;28;20104;-87
2022/04/29 05:54:13;;;;;;;5.45;2.90;;;8.20;75.60;;;;;;5009317;28;20042;-86
2022/04/29 05:56:40;;;;;;;4.05;2.25;;;8.20;75.60;;;;;;5009875;28;20041;-87
2022/04/29 05:59:15;;;;;;;7.00;2.83;;;8.20;75.60;;;;;;5005656;28;20505;-87
2022/04/29 06:02:01;;;;;;;8.02;2.80;;;8.20;75.70;;;;;;5015907;28;20054;-87
2022/04/29 06:04:52;;;;;;;4.72;1.98;;;8.30;75.70;;;;;;5015045;28;20085;-87
2022/04/29 06:07:20;;;;;;;4.53;2.08;;;8.30;75.60;;;;;;4999739;28;20060;-87
2022/04/29 06:09:50;;;;;;;7.25;2.53;;;8.30;75.50;;;;;;4999866;28;20057;-86
2022/04/29 06:12:21;;;;;;;3.75;2.05;;;8.30;75.50;;;;;;5015804;28;20099;-88
2022/04/29 06:14:48;;;;;;;5.60;2.53;;;8.40;75.50;;;;;;5015814;28;20047;-86
2022/04/29 06:17:49;;;;;;;4.38;2.47;;;8.40;75.50;;;;;;4973465;28;20578;-87
2022/04/29 06:20:36;;;;;;;6.40;2.88;;;8.40;75.50;;;;;;5016154;28;20103;-86
2022/04/29 06:23:28;;;;;;;5.32;2.40;;;8.50;75.50;;;;;;5018401;28;20128;-87
2022/04/29 06:25:56;;;;;;;4.35;2.15;;;8.50;75.40;;;;;;4980106;28;20055;-87
2022/04/29 06:28:28;;;;;;;4.13;2.60;;;8.60;75.30;;;;;;5015446;28;20054;-86
2022/04/29 06:30:55;;;;;;;4.30;2.20;;;8.60;75.20;;;;;;4998594;28;20166;-86
2022/04/29 06:33:38;;;;;;;;;;;8.70;75.20;;;;;;5018429;28;20107;-85
2022/04/29 06:36:50;;;;;;;7.00;1.77;;;8.70;75.00;;;;;;5013721;28;19921;-88
2022/04/29 06:39:17;;;;;;;4.18;1.92;;;8.70;75.00;;;;;;5009425;28;20053;-86
2022/04/29 06:42:17;;;;;;;5.03;2.15;;;8.80;74.90;;;;;;5020227;28;20052;-88
2022/04/29 06:45:25;;;;;;;4.80;1.90;;;8.80;74.80;;;;;;4986111;28;20057;-84
2022/04/29 06:48:01;;;;;;;5.28;1.73;;;8.90;74.80;;;;;;4995844;28;20284;-84
2022/04/29 06:50:47;;;;;;;4.65;2.45;;;9.00;74.80;;;;;;5026918;28;20056;-83
2022/04/29 06:53:44;;;;;;;2.95;1.60;;;9.00;74.70;;;;;;5015163;28;20041;-83
2022/04/29 06:56:11;;;;;;;5.03;1.85;;;9.00;74.60;;;;;;4999367;28;20038;-91
2022/04/29 06:58:38;;;;;;;6.82;2.55;;;9.10;74.60;;;;;;5016204;28;20057;-86
2022/04/29 07:01:06;;;;;;;4.65;1.92;;;9.10;74.50;;;;;;4998949;28;20045;-85
2022/04/29 07:03:38;;;;;;;5.93;3.03;;;9.20;74.50;;;;;;5000331;28;20076;-90
2022/04/29 07:06:06;;;;;;;4.47;2.10;;;9.20;74.60;;;;;;5016173;28;20050;-90
2022/04/29 07:08:34;;;;;;;3.47;2.10;;;9.30;74.50;;;;;;5018419;28;20077;-90
2022/04/29 07:11:20;;;;;;;6.43;3.15;;;9.40;74.40;;;;;;5023008;28;20421;-90
2022/04/29 07:14:30;;;;;;;5.45;2.67;;;9.40;74.40;;;;;;5010359;28;20196;-91
2022/04/29 07:17:17;;;;;;;6.18;2.55;;;9.40;74.40;;;;;;5005706;28;20103;-90
2022/04/29 07:19:53;;;;;;;4.00;2.17;;;9.40;74.40;;;;;;5001025;28;20092;-86
2022/04/29 07:22:30;;;;;;;4.07;1.55;;;9.50;74.40;;;;;;5018727;28;20045;-85
2022/04/29 07:24:58;;;;;;;7.13;2.40;;;9.60;74.20;;;;;;4987613;28;20056;-86
2022/04/29 07:27:28;;;;;;;4.82;2.05;;;9.70;74.10;;;;;;5016414;28;20065;-89
2022/04/29 07:29:59;;;;;;;4.28;2.17;;;9.70;74.10;;;;;;5039704;28;20046;-83
2022/04/29 07:32:36;;;;;;;4.53;1.85;;;9.80;74.00;;;;;;5026283;28;20055;-83
2022/04/29 07:44:03;;;;;;;4.68;1.73;;;10.10;73.30;;;;;;5018610;28;20042;-83
2022/04/29 07:46:36;;;;;;;3.08;1.38;;;10.20;73.10;;;;;;5002702;28;20055;-83
2022/04/29 07:49:07;;;;;;;2.53;1.20;;;10.30;73.00;;;;;;5018970;28;20063;-83
2022/04/29 07:51:34;;;;;;;4.70;1.50;;;10.40;72.80;;;;;;4990270;28;20056;-84
2022/04/29 07:54:02;;;;;;;2.22;1.08;;;10.50;72.70;;;;;;5000878;28;20056;-84
2022/04/29 07:56:29;;;;;;;4.60;1.20;;;10.60;72.50;;;;;;5034605;28;20052;-84
2022/04/29 07:59:03;;;;;;;2.28;1.20;;;10.70;72.40;;;;;;5000957;28;20052;-84
2022/04/29 08:01:33;;;;;;;4.28;1.60;;;10.80;72.30;;;;;;5016162;28;20445;-84
2022/04/29 08:04:02;;;;;;;2.97;1.55;;;10.90;72.10;;;;;;5001598;28;20046;-85
2022/04/29 08:06:32;;;;;;;3.78;2.03;;;11.20;71.80;;;;;;5001774;28;20046;-84
2022/04/29 08:09:20;;;;;;;3.67;1.40;;;11.30;71.50;;;;;;5004246;28;20136;-85
2022/04/29 08:11:53;;;;;;;7.00;1.42;;;11.30;71.30;;;;;;4998240;28;20046;-85
2022/04/29 08:14:34;;;;;;;4.65;2.00;;;11.40;71.20;;;;;;5005532;28;20058;-87
2022/04/29 08:17:27;;;;;;;;;;;11.40;71.10;;;;;;5031540;28;20053;-85
2022/04/29 08:19:54;;;;;;;5.40;1.60;;;11.50;71.00;;;;;;5023156;28;19944;-86
2022/04/29 08:22:23;;;;;;;3.20;1.42;;;11.60;70.80;;;;;;5017744;28;20094;-85
2022/04/29 08:24:58;;;;;;;6.10;2.25;;;11.70;70.50;;;;;;5001605;28;20057;-86
2022/04/29 08:27:28;;;;;;;5.47;1.95;;;11.80;70.30;;;;;;4999909;28;20145;-86
2022/04/29 08:30:07;;;;;;;7.72;2.00;;;11.80;70.10;;;;;;5016111;28;20049;-86
2022/04/29 08:32:37;;;;;;;5.63;1.73;;;12.00;70.00;;;;;;5001289;28;20544;-85
2022/04/29 08:35:09;;;;;;;5.43;1.77;;;12.10;69.80;;;;;;5016878;28;20129;-85
2022/04/29 08:37:43;;;;;;;3.53;1.10;;;12.10;69.50;;;;;;5000854;28;20041;-86
2022/04/29 08:40:13;;;;;;;3.42;1.67;;;12.30;69.30;;;;;;4997775;28;20065;-88
2022/04/29 08:42:41;;;;;;;6.55;1.73;;;12.40;69.10;;;;;;4997143;28;20042;-85
2022/04/29 08:45:22;;;;;;;4.88;1.58;;;12.50;68.80;;;;;;4994855;28;20095;-89
2022/04/29 08:48:10;;;;;;;5.70;1.88;;;12.40;68.50;;;;;;5006788;28;20203;-86
2022/04/29 08:50:40;;;;;;;6.43;2.10;;;12.40;68.50;;;;;;5001148;28;20045;-87
2022/04/29 08:53:07;;;;;;;3.25;2.00;;;12.50;68.20;;;;;;5000306;28;20042;-88
2022/04/29 08:58:37;;;;;;;4.57;1.67;;;12.70;67.80;;;;;;5014160;28;20048;-88
2022/04/29 09:01:10;;;;;;;4.60;1.80;;;12.80;67.60;;;;;;5000525;28;20095;-87
2022/04/29 09:03:37;;;;;;;;;;;12.90;67.30;;;;;;5016796;28;20045;-86
2022/04/29 09:06:06;;;;;;;3.80;1.42;;;12.90;67.30;;;;;;5032979;28;20610;-86
2022/04/29 09:08:42;;;;;;;5.25;1.67;;;12.90;67.20;;;;;;5000914;28;20049;-87
2022/04/29 09:11:22;;;;;;;5.00;2.00;;;13.00;66.90;;;;;;5016069;28;20053;-86
2022/04/29 09:13:50;;;;;;;2.78;1.40;;;13.10;66.80;;;;;;5016262;28;20056;-88
2022/04/29 09:16:18;;;;;;;8.43;2.25;;;13.30;66.70;;;;;;5000274;28;20044;-88
2022/04/29 09:18:53;;;;;;;5.05;2.00;;;13.50;66.30;;;;;;5001027;28;20054;-87
2022/04/29 09:21:27;;;;;;;4.25;1.80;;;13.80;65.80;;;;;;4986683;28;20112;-88
2022/04/29 09:24:06;;;;;;;6.40;1.92;;;13.80;65.30;;;;;;4999883;28;20041;-87
2022/04/29 09:27:02;;;;;;;3.60;2.20;;;14.00;65.30;;;;;;5019262;28;20057;-87
2022/04/29 09:30:04;;;;;;;8.18;2.22;;;14.10;65.00;;;;;;5008848;28;20473;-88
2022/04/29 09:33:03;;;;;;;6.38;1.88;;;14.10;64.70;;;;;;5015779;28;20042;-90
2022/04/29 09:36:05;;;;;;;4.13;1.77;;;14.10;64.60;;;;;;5017002;28;20045;-86
2022/04/29 09:41:26;;;;;;;3.28;1.88;;;14.30;64.30;;;;;;5015050;28;20059;-86
2022/04/29 09:43:54;;;;;;;4.07;2.13;;;14.30;63.90;;;;;;4998833;28;20055;-87
2022/04/29 09:46:25;;;;;;;6.32;2.03;;;14.40;63.90;;;;;;4998766;28;20053;-88
2022/04/29 09:49:03;;;;;;;6.22;2.90;;;14.40;63.70;;;;;;4983199;28;20049;-87
2022/04/29 09:51:54;;;;;;;6.18;2.85;;;14.40;63.60;;;;;;4999518;28;20505;-87
2022/04/29 09:54:30;;;;;;;5.97;2.45;;;14.40;63.70;;;;;;5003646;28;20807;-86
2022/04/29 09:57:14;;;;;;;4.32;2.00;;;14.40;63.70;;;;;;4999740;28;20056;-91
2022/04/29 09:59:46;;;;;;;7.82;2.53;;;14.50;63.60;;;;;;4999711;28;20046;-88
2022/04/29 10:02:17;;;;;;;5.03;2.20;;;14.60;63.50;;;;;;5012974;28;20054;-87
2022/04/29 10:04:51;;;;;;;6.47;2.10;;;14.70;63.50;;;;;;5000764;28;20038;-87
2022/04/29 10:07:25;;;;;;;5.68;2.50;;;14.80;63.30;;;;;;5013110;28;20046;-87
2022/04/29 10:09:59;;;;;;;4.10;2.35;;;14.90;63.20;;;;;;5002417;28;20049;-87
2022/04/29 10:12:29;;;;;;;6.28;2.22;;;14.90;62.90;;;;;;5000563;28;20050;-87
2022/04/29 10:15:20;;;;;;;5.47;2.65;;;14.90;62.80;;;;;;4981933;28;20186;-86
2022/04/29 10:21:16;;;;;;;6.47;2.58;;;14.90;62.60;;;;;;5020666;28;20418;-85
2022/04/29 10:23:50;;;;;;;6.60;2.60;;;14.80;62.50;;;;;;5015055;28;20132;-86
2022/04/29 10:26:22;;;;;;;5.57;2.95;;;14.80;62.70;;;;;;4977244;28;20076;-85
2022/04/29 10:28:55;;;;;;;5.22;2.60;;;14.80;62.50;;;;;;5015495;28;20055;-86
2022/04/29 10:31:26;;;;;;;3.40;2.28;;;14.70;62.60;;;;;;5015092;28;20053;-87
2022/04/29 10:33:53;;;;;;;5.55;2.20;;;14.70;62.60;;;;;;5000112;28;20127;-84
2022/04/29 10:36:26;;;;;;;7.57;2.40;;;14.80;62.50;;;;;;5026497;28;20509;-86
2022/04/29 10:39:03;;;;;;;5.70;2.22;;;14.80;62.30;;;;;;5007430;28;20575;-86
2022/04/29 10:41:31;;;;;;;3.90;1.85;;;14.80;62.00;;;;;;4999108;28;20041;-86
2022/04/29 10:43:58;;;;;;;3.20;1.90;;;14.90;62.10;;;;;;5002024;28;20041;-85
2022/04/29 10:46:36;;;;;;;4.70;2.22;;;14.90;61.90;;;;;;5003131;28;20149;-89
2022/04/29 10:49:22;;;;;;;6.13;2.22;;;14.90;61.60;;;;;;5020304;28;20139;-87
2022/04/29 10:52:28;;;;;;;5.05;2.03;;;14.90;61.50;;;;;;5005959;28;20486;-86
2022/04/29 10:55:06;;;;;;;5.40;1.80;;;14.90;61.40;;;;;;4989100;28;20413;-86
2022/04/29 10:57:49;;;;;;;4.82;1.95;;;14.80;61.50;;;;;;5004727;28;20130;-87
2022/04/29 11:00:23;;;;;;;4.85;2.30;;;14.90;61.50;;;;;;4989388;28;20083;-86
2022/04/29 11:02:55;;;;;;;3.25;1.90;;;14.90;61.30;;;;;;5018394;28;20038;-86
2022/04/29 11:05:36;;;;;;;6.05;2.28;;;15.00;61.30;;;;;;5002567;28;20132;-88
2022/04/29 11:08:18;;;;;;;3.95;2.15;;;15.00;61.00;;;;;;5002946;28;20041;-89
2022/04/29 11:10:58;;;;;;;5.65;2.35;;;15.00;60.90;;;;;;5019761;28;20042;-88
2022/04/29 11:13:37;;;;;;;5.63;1.73;;;15.10;60.90;;;;;;5019345;28;20041;-89
2022/04/29 11:16:24;;;;;;;7.63;2.25;;;15.20;60.90;;;;;;5022169;28;20109;-85
2022/04/29 11:19:21;;;;;;;6.25;2.47;;;15.20;60.50;;;;;;5006190;28;20050;-88
2022/04/29 11:24:49;;;;;;;4.68;2.15;;;15.10;60.60;;;;;;5019422;28;20488;-89
2022/04/29 11:27:38;;;;;;;5.72;2.05;;;15.10;60.50;;;;;;5008934;28;20052;-89
2022/04/29 11:30:10;;;;;;;7.22;2.83;;;15.20;60.40;;;;;;5013418;28;20042;-89
2022/04/29 11:32:53;;;;;;;5.60;2.55;;;15.20;60.20;;;;;;5019000;28;20497;-88
2022/04/29 11:35:26;;;;;;;6.47;2.63;;;15.30;60.10;;;;;;5002057;28;20100;-87
2022/04/29 11:37:54;;;;;;;5.95;2.45;;;15.30;60.00;;;;;;5002462;28;20049;-88
2022/04/29 11:40:26;;;;;;;4.68;1.95;;;15.30;60.00;;;;;;5002372;28;20041;-89
2022/04/29 11:42:54;;;;;;;4.03;2.38;;;15.40;59.80;;;;;;5002352;28;20049;-86
2022/04/29 11:45:23;;;;;;;4.70;2.20;;;15.40;59.70;;;;;;5018136;28;20509;-84
2022/04/29 11:47:51;;;;;;;4.93;2.47;;;15.40;59.60;;;;;;5002022;28;20049;-86
2022/04/29 11:50:34;;;;;;;5.57;2.45;;;15.30;59.60;;;;;;5004175;28;20132;-87
2022/04/29 11:53:05;;;;;;;4.93;2.28;;;15.20;59.30;;;;;;5005799;28;20049;-88
2022/04/29 11:55:33;;;;;;;4.88;2.50;;;15.10;59.60;;;;;;4996397;28;20083;-87
2022/04/29 12:01:21;;;;;;;6.13;2.40;;;14.90;59.70;;;;;;4960902;28;20044;-89
2022/04/29 12:03:48;;;;;;;5.15;2.13;;;14.90;59.60;;;;;;4994607;28;20063;-86
2022/04/29 12:06:18;;;;;;;4.80;2.55;;;14.90;59.70;;;;;;5002790;28;20691;-84
2022/04/29 12:08:50;;;;;;;6.30;2.50;;;14.80;59.70;;;;;;5017530;28;20056;-84
2022/04/29 12:11:28;;;;;;;3.72;1.95;;;14.80;59.80;;;;;;5033916;28;20054;-83
2022/04/29 12:13:56;;;;;;;3.55;1.92;;;14.90;59.60;;;;;;5011068;28;20053;-84
2022/04/29 12:16:23;;;;;;;4.30;2.03;;;14.90;59.50;;;;;;4985156;28;20061;-87
2022/04/29 12:18:52;;;;;;;5.35;2.15;;;14.90;59.50;;;;;;5021686;28;20057;-84
2022/04/29 12:21:25;;;;;;;3.83;1.88;;;15.00;59.40;;;;;;5017671;28;20189;-87
2022/04/29 12:23:52;;;;;;;4.95;1.83;;;15.00;59.40;;;;;;5004364;28;20048;-83
2022/04/29 12:26:21;;;;;;;6.63;1.92;;;15.00;59.40;;;;;;5000795;28;20050;-84
2022/04/29 12:28:55;;;;;;;5.25;2.00;;;15.00;59.40;;;;;;5000623;28;20062;-90
2022/04/29 12:35:07;;;;;;;4.90;1.75;;;15.30;59.00;;;;;;5002931;28;20399;-84
2022/04/29 12:37:34;;;;;;;3.33;1.80;;;15.50;58.70;;;;;;5000201;28;20459;-83
2022/04/29 12:40:12;;;;;;;3.22;1.83;;;15.50;58.50;;;;;;5015085;28;20506;-83
2022/04/29 12:43:02;;;;;;;4.18;1.63;;;15.70;58.30;;;;;;4999651;28;20049;-88
2022/04/29 12:45:29;;;;;;;3.13;1.65;;;15.90;58.20;;;;;;4999634;28;20486;-90
2022/04/29 12:48:10;;;;;;;3.22;1.85;;;16.00;57.80;;;;;;5015137;28;20505;-84
2022/04/29 12:50:56;;;;;;;3.88;1.90;;;16.00;57.60;;;;;;5000928;28;20057;-81
2022/04/29 12:53:30;;;;;;;5.28;2.33;;;16.00;57.30;;;;;;5013591;28;20042;-83
2022/04/29 12:55:59;;;;;;;3.83;1.95;;;16.00;57.20;;;;;;5000210;28;20080;-81
2022/04/29 12:58:30;;;;;;;5.43;2.40;;;15.80;57.40;;;;;;4997500;28;20050;-81
2022/04/29 13:00:57;;;;;;;5.30;2.60;;;15.80;57.20;;;;;;4994065;28;20042;-83
2022/04/29 13:03:28;;;;;;;5.05;2.35;;;15.90;57.20;;;;;;4996990;28;20379;-82
2022/04/29 13:06:11;;;;;;;4.22;2.45;;;16.30;56.40;;;;;;5000566;28;20056;-83
2022/04/29 13:08:38;;;;;;;3.05;1.83;;;16.70;56.10;;;;;;4996294;28;20049;-82
2022/04/29 13:11:05;;;;;;;3.83;1.70;;;17.20;55.30;;;;;;4998937;28;20045;-83
2022/04/29 13:13:33;;;;;;;3.15;2.00;;;17.60;54.90;;;;;;5015378;28;20576;-81
2022/04/29 13:16:05;;;;;;;3.70;2.50;;;17.90;54.30;;;;;;4999636;28;20053;-82
2022/04/29 13:18:35;;;;;;;4.65;1.77;;;18.10;53.70;;;;;;4996070;28;20069;-85
2022/04/29 13:21:08;;;;;;;4.97;1.85;;;18.30;53.70;;;;;;4992154;28;20124;-83
2022/04/29 13:23:41;;;;;;;7.60;2.30;;;18.40;53.50;;;;;;5012504;28;20041;-83
2022/04/29 13:26:13;;;;;;;3.53;1.90;;;18.40;53.50;;;;;;4996202;28;20046;-82
2022/04/29 13:28:44;;;;;;;5.05;1.45;;;18.50;53.60;;;;;;4992603;28;20074;-82
2022/04/29 13:31:11;;;;;;;4.18;1.88;;;18.50;53.90;;;;;;4978192;28;20042;-82
2022/04/29 13:33:38;;;;;;;4.63;2.15;;;18.60;53.60;;;;;;5011831;28;20077;-82
2022/04/29 13:36:09;;;;;;;3.38;1.67;;;18.60;53.40;;;;;;5002928;28;20052;-82
2022/04/29 13:38:36;;;;;;;2.25;1.60;;;18.50;53.40;;;;;;5013088;28;20056;-83
2022/04/29 13:41:06;;;;;;;2.80;1.60;;;18.50;53.40;;;;;;4995632;28;20049;-81
2022/04/29 13:43:34;;;;;;;4.18;1.60;;;18.50;53.90;;;;;;4979734;28;20076;-82
2022/04/29 13:46:21;;;;;;;4.95;1.92;;;18.70;53.20;;;;;;4980858;28;20088;-83
2022/04/29 13:48:49;;;;;;;3.65;2.00;;;18.60;52.70;;;;;;4992179;28;20050;-82
2022/04/29 13:51:29;;;;;;;4.47;1.63;;;18.60;52.60;;;;;;5009354;28;20565;-89
2022/04/29 13:53:59;;;;;;;3.55;2.13;;;18.70;52.60;;;;;;5003332;28;20144;-82
2022/04/29 13:56:28;;;;;;;3.58;1.98;;;18.80;52.50;;;;;;5003910;28;20089;-82
2022/04/29 13:58:56;;;;;;;5.22;2.10;;;19.00;52.30;;;;;;5000589;28;20072;-85
2022/04/29 14:01:24;;;;;;;6.50;2.03;;;19.10;52.00;;;;;;4977245;28;20454;-85
2022/04/29 14:03:54;;;;;;;5.60;2.00;;;19.20;51.70;;;;;;4995265;28;20122;-82